Time;durP1;ratioP1;P1;durP2;ratioP2;P2;SDS_P1;SDS_P2;PMS_P1;PMS_P2;Temp;Humidity;BMP_temperature;BMP_pressure;BME280_temperature;BME280_humidity;BME280_pressure;Samples;Min_cycle;Max_cycle;Signal;HPM_P1;HPM_P2
2021/07/26 00:00:39;;;;;;;6.20;2.35;;;;;;;23.90;39.67;99819.88;5051022;28;20107;-74
2021/07/26 00:03:04;;;;;;;7.22;2.90;;;;;;;23.87;39.85;99827.66;5049868;28;20033;-76
2021/07/26 00:05:30;;;;;;;7.22;3.15;;;;;;;23.74;40.04;99828.88;5050824;28;20104;-75
2021/07/26 00:07:55;;;;;;;3.15;2.20;;;;;;;23.64;40.12;99826.91;5051117;28;20021;-76
2021/07/26 00:10:21;;;;;;;4.53;3.30;;;;;;;23.50;40.32;99822.16;5051014;28;20502;-74
2021/07/26 00:12:46;;;;;;;3.83;2.45;;;;;;;23.57;40.36;99844.38;5051021;28;20031;-78
2021/07/26 00:15:11;;;;;;;5.57;3.10;;;;;;;23.58;40.20;99846.81;5049611;28;20025;-74
2021/07/26 00:17:37;;;;;;;3.13;2.75;;;;;;;23.58;40.44;99837.91;5049608;28;20513;-76
2021/07/26 00:20:04;;;;;;;3.55;2.65;;;;;;;23.57;40.49;99828.19;5050840;28;20036;-75
2021/07/26 00:22:29;;;;;;;4.13;2.72;;;;;;;23.34;40.49;99778.09;5050766;28;20030;-75
2021/07/26 00:24:55;;;;;;;7.53;2.90;;;;;;;23.44;40.39;99808.66;5049591;28;20513;-73
2021/07/26 00:27:20;;;;;;;3.50;2.72;;;;;;;23.63;40.31;99822.59;5053987;28;20025;-73
2021/07/26 00:29:45;;;;;;;6.63;2.70;;;;;;;23.61;40.34;99830.13;5054686;28;20521;-76
2021/07/26 00:32:11;;;;;;;6.35;2.75;;;;;;;23.44;40.33;99797.06;5054464;28;20028;-75
2021/07/26 00:34:36;;;;;;;3.45;2.40;;;;;;;23.57;40.33;99826.31;5054534;28;20044;-75
2021/07/26 00:37:02;;;;;;;4.18;2.92;;;;;;;23.18;40.27;99762.88;5054476;28;20060;-76
2021/07/26 00:39:34;;;;;;;4.07;2.40;;;;;;;23.46;40.38;99803.00;5054525;28;20112;-75
2021/07/26 00:41:59;;;;;;;;;;;;;;;23.39;40.87;99816.69;5055077;28;20032;-76
2021/07/26 00:44:27;;;;;;;3.13;2.40;;;;;;;22.94;40.43;99724.63;5054250;28;19924;-75
2021/07/26 00:46:53;;;;;;;5.75;2.78;;;;;;;23.44;40.41;99827.50;5054357;28;20482;-76
2021/07/26 00:49:20;;;;;;;3.58;3.00;;;;;;;23.22;40.66;99801.69;5054349;28;20032;-75
2021/07/26 00:51:48;;;;;;;4.25;2.58;;;;;;;22.74;40.76;99744.88;5052999;28;20119;-76
2021/07/26 00:54:17;;;;;;;4.78;2.47;;;;;;;23.23;40.94;99831.06;5052942;28;20090;-75
2021/07/26 00:56:44;;;;;;;5.20;3.20;;;;;;;23.17;40.98;99834.78;5052709;28;20025;-75
2021/07/26 00:59:10;;;;;;;4.68;2.55;;;;;;;22.82;41.05;99776.75;5054280;28;20521;-75
2021/07/26 01:01:36;;;;;;;3.80;2.65;;;;;;;23.19;41.06;99838.03;5054214;28;20490;-75
2021/07/26 01:04:02;;;;;;;2.83;2.60;;;;;;;22.88;40.96;99787.59;5052874;28;20035;-76
2021/07/26 01:06:27;;;;;;;3.53;2.47;;;;;;;22.59;40.91;99752.78;5054180;28;20035;-76
2021/07/26 01:08:53;;;;;;;3.88;2.75;;;;;;;22.34;41.31;99733.63;5053995;28;20032;-75
2021/07/26 01:11:18;;;;;;;5.30;2.75;;;;;;;22.77;41.37;99835.88;5054106;28;20033;-75
2021/07/26 01:13:43;;;;;;;3.50;2.33;;;;;;;22.49;41.73;99785.75;5054147;28;20119;-75
2021/07/26 01:16:09;;;;;;;5.00;2.63;;;;;;;22.54;41.71;99811.09;5054012;28;20061;-75
2021/07/26 01:18:36;;;;;;;4.28;2.40;;;;;;;22.66;41.87;99839.53;5053816;28;20037;-74
2021/07/26 01:21:09;;;;;;;3.90;2.63;;;;;;;22.53;42.04;99818.38;5053739;28;20037;-75
2021/07/26 01:23:39;;;;;;;4.15;2.65;;;;;;;22.60;41.88;99818.19;5052309;28;20401;-76
2021/07/26 01:26:08;;;;;;;4.80;2.60;;;;;;;22.29;42.13;99782.78;5053740;28;20025;-74
2021/07/26 01:28:36;;;;;;;5.43;3.08;;;;;;;22.57;42.01;99818.69;5052296;28;20028;-74
2021/07/26 01:31:03;;;;;;;6.60;2.83;;;;;;;22.48;42.06;99802.97;5053704;28;20085;-76
2021/07/26 01:33:29;;;;;;;3.83;2.80;;;;;;;22.38;42.04;99783.19;5053643;28;20494;-76
2021/07/26 01:35:55;;;;;;;4.47;2.55;;;;;;;22.24;42.04;99761.19;5053473;28;20039;-75
2021/07/26 01:38:21;;;;;;;3.85;2.45;;;;;;;22.39;42.35;99820.59;5053064;28;20029;-75
2021/07/26 01:40:53;;;;;;;4.22;2.95;;;;;;;22.36;42.35;99814.91;5053336;28;20199;-76
2021/07/26 01:43:20;;;;;;;3.50;2.55;;;;;;;22.35;42.42;99808.72;5052991;28;20055;-76
2021/07/26 01:46:03;;;;;;;5.32;2.50;;;;;;;22.32;42.50;99786.88;5053353;28;20025;-76
2021/07/26 01:48:59;;;;;;;4.10;2.17;;;;;;;22.32;42.82;99803.81;5051999;28;20043;-75
2021/07/26 01:51:43;;;;;;;6.38;3.10;;;;;;;21.95;42.55;99736.28;5053339;28;20072;-76
2021/07/26 01:54:09;;;;;;;4.78;2.63;;;;;;;22.43;42.43;99802.91;5053206;28;20021;-75
2021/07/26 01:56:35;;;;;;;4.47;2.90;;;;;;;22.36;42.30;99796.06;5052881;28;20024;-73
2021/07/26 01:59:01;;;;;;;4.43;2.45;;;;;;;22.37;42.51;99809.28;5053339;28;20105;-73
2021/07/26 02:01:26;;;;;;;3.47;2.55;;;;;;;22.33;42.38;99800.06;5053127;28;20036;-76
2021/07/26 02:03:52;;;;;;;7.40;2.53;;;;;;;22.13;42.51;99775.56;5053234;28;20017;-75
2021/07/26 02:06:17;;;;;;;3.53;2.67;;;;;;;21.76;42.55;99727.69;5052902;28;20082;-76
2021/07/26 02:08:42;;;;;;;4.65;2.90;;;;;;;22.11;42.72;99783.88;5053336;28;20032;-75
2021/07/26 02:11:08;;;;;;;4.20;2.60;;;;;;;22.23;42.60;99805.28;5052812;28;20063;-74
2021/07/26 02:13:35;;;;;;;4.00;2.90;;;;;;;22.21;42.64;99807.41;5052774;28;20418;-74
2021/07/26 02:16:00;;;;;;;7.00;2.95;;;;;;;21.82;42.72;99753.59;5051327;28;20032;-76
2021/07/26 02:18:25;;;;;;;7.70;3.30;;;;;;;22.14;42.74;99802.22;5052665;28;20029;-76
2021/07/26 02:20:51;;;;;;;4.72;2.90;;;;;;;21.67;42.71;99733.72;5051319;28;20024;-76
2021/07/26 02:23:16;;;;;;;6.57;3.33;;;;;;;22.11;42.88;99820.72;5052459;28;20061;-76
2021/07/26 02:25:42;;;;;;;7.50;2.80;;;;;;;21.99;43.17;99823.47;5052568;28;20020;-76
2021/07/26 02:28:08;;;;;;;8.15;3.15;;;;;;;21.54;43.08;99762.53;5052419;28;20494;-76
2021/07/26 02:30:33;;;;;;;5.07;2.85;;;;;;;21.67;43.14;99774.03;5052357;28;20079;-75
2021/07/26 02:32:59;;;;;;;4.32;2.88;;;;;;;21.58;43.23;99770.94;5052342;28;20021;-76
2021/07/26 02:35:24;;;;;;;8.38;2.80;;;;;;;21.08;43.29;99696.47;5052371;28;20017;-75
2021/07/26 02:37:51;;;;;;;5.68;2.70;;;;;;;21.76;43.39;99804.81;5051226;28;20024;-74
2021/07/26 02:40:17;;;;;;;9.15;3.15;;;;;;;21.55;43.33;99787.53;5052344;28;20025;-75
2021/07/26 02:42:42;;;;;;;6.53;2.85;;;;;;;21.36;43.70;99760.09;5050884;28;20074;-76
2021/07/26 02:45:08;;;;;;;4.03;2.75;;;;;;;21.59;43.71;99806.69;5052031;28;20024;-75
2021/07/26 02:47:33;;;;;;;5.55;2.90;;;;;;;21.65;43.75;99821.84;5052051;28;20553;-76
2021/07/26 02:49:59;;;;;;;5.50;2.83;;;;;;;21.66;43.77;99834.22;5051423;28;20104;-74
2021/07/26 02:52:24;;;;;;;6.68;3.30;;;;;;;21.13;43.69;99744.88;5052081;28;20021;-76
2021/07/26 02:54:49;;;;;;;5.75;2.80;;;;;;;21.55;43.86;99822.44;5051788;28;20548;-74
2021/07/26 02:57:15;;;;;;;5.10;2.90;;;;;;;21.26;44.01;99781.41;5051736;28;20092;-76
2021/07/26 02:59:40;;;;;;;3.92;3.00;;;;;;;21.51;44.05;99830.19;5051862;28;20083;-74
2021/07/26 03:02:06;;;;;;;3.95;2.88;;;;;;;21.46;44.09;99829.28;5052117;28;20055;-75
2021/07/26 03:04:31;;;;;;;4.45;3.00;;;;;;;20.99;44.10;99754.31;5050260;28;20028;-75
2021/07/26 03:06:57;;;;;;;4.50;3.20;;;;;;;21.44;44.26;99826.84;5051709;28;20033;-74
2021/07/26 03:09:22;;;;;;;4.57;3.05;;;;;;;21.42;44.22;99823.56;5051549;28;20482;-76
2021/07/26 03:11:48;;;;;;;8.48;3.60;;;;;;;20.98;44.50;99760.72;5050133;28;20111;-75
2021/07/26 03:14:13;;;;;;;7.72;3.30;;;;;;;21.33;44.43;99806.22;5051726;28;20413;-76
2021/07/26 03:16:38;;;;;;;13.18;3.45;;;;;;;20.97;44.58;99756.41;5051470;28;20482;-75
2021/07/26 03:19:04;;;;;;;8.18;3.20;;;;;;;21.27;44.59;99806.38;5051654;28;20105;-75
2021/07/26 03:21:29;;;;;;;7.75;3.10;;;;;;;21.30;44.56;99814.78;5050253;28;20559;-76
2021/07/26 03:23:55;;;;;;;4.18;3.03;;;;;;;20.82;44.66;99738.16;5051396;28;20107;-74
2021/07/26 03:26:20;;;;;;;6.50;3.42;;;;;;;21.32;44.73;99804.59;5050012;28;20082;-75
2021/07/26 03:28:46;;;;;;;7.25;3.63;;;;;;;21.43;44.60;99809.09;5051168;28;20021;-75
2021/07/26 03:31:11;;;;;;;5.43;3.20;;;;;;;21.21;44.36;99757.09;5050029;28;20025;-75
2021/07/26 03:33:37;;;;;;;6.97;3.45;;;;;;;21.24;44.49;99762.84;5051318;28;20032;-75
2021/07/26 03:36:03;;;;;;;10.00;3.55;;;;;;;21.34;44.46;99764.06;5049941;28;20074;-76
2021/07/26 03:38:29;;;;;;;9.00;3.40;;;;;;;21.67;44.26;99808.97;5051405;28;20014;-76
2021/07/26 03:40:54;;;;;;;9.82;4.07;;;;;;;21.69;44.31;99815.72;5051419;28;20021;-73
2021/07/26 03:43:20;;;;;;;7.22;3.30;;;;;;;21.37;44.42;99772.44;5051263;28;20052;-74
2021/07/26 03:45:46;;;;;;;8.68;3.90;;;;;;;21.59;44.41;99818.25;5050948;28;20437;-74
2021/07/26 03:48:11;;;;;;;5.13;3.22;;;;;;;21.21;44.43;99768.66;5051050;28;20394;-74
2021/07/26 03:50:37;;;;;;;10.25;3.63;;;;;;;21.14;44.49;99769.88;5051220;28;20025;-75
2021/07/26 03:53:03;;;;;;;10.02;3.88;;;;;;;21.31;44.69;99821.78;5051275;28;20032;-76
2021/07/26 03:55:28;;;;;;;5.15;3.33;;;;;;;21.49;44.74;99826.09;5051154;28;20150;-76
2021/07/26 03:57:54;;;;;;;6.35;3.40;;;;;;;21.44;44.79;99842.13;5050970;28;20052;-76
2021/07/26 04:00:22;;;;;;;5.45;3.53;;;;;;;21.48;44.59;99835.22;5052396;28;20029;-76
2021/07/26 04:02:51;;;;;;;9.23;3.80;;;;;;;21.51;44.60;99843.63;5053827;28;20529;-75
2021/07/26 04:05:40;;;;;;;7.20;3.50;;;;;;;21.26;44.70;99800.19;5055295;28;20025;-75
2021/07/26 04:08:05;;;;;;;6.35;3.70;;;;;;;21.50;44.74;99858.09;5054696;28;20547;-76
2021/07/26 04:10:30;;;;;;;8.15;3.60;;;;;;;21.32;44.92;99836.00;5055211;28;20049;-76
2021/07/26 04:12:55;;;;;;;6.72;3.67;;;;;;;21.24;44.89;99823.78;5055158;28;20056;-75
2021/07/26 04:15:21;;;;;;;9.60;3.80;;;;;;;21.33;44.86;99851.06;5055092;28;20025;-76
2021/07/26 04:17:46;;;;;;;6.90;3.53;;;;;;;21.31;44.99;99850.50;5055045;28;20028;-76
2021/07/26 04:20:12;;;;;;;8.13;3.85;;;;;;;21.04;45.04;99809.97;5054996;28;20112;-76
2021/07/26 04:22:38;;;;;;;9.68;4.30;;;;;;;21.20;45.71;99876.31;5054956;28;20029;-77
2021/07/26 04:25:04;;;;;;;15.18;4.97;;;;;;;20.66;46.07;99819.38;5054872;28;20021;-76
2021/07/26 04:27:29;;;;;;;10.07;4.50;;;;;;;21.01;46.19;99866.81;5054787;28;20021;-76
2021/07/26 04:29:55;;;;;;;5.80;4.22;;;;;;;21.19;46.08;99886.25;5054730;28;20538;-77
2021/07/26 04:32:21;;;;;;;9.70;4.60;;;;;;;21.08;45.79;99844.13;5054491;28;20074;-76
2021/07/26 04:34:46;;;;;;;8.90;4.85;;;;;;;21.49;45.67;99887.91;5054747;28;20418;-76
2021/07/26 04:37:11;;;;;;;9.73;5.72;;;;;;;21.59;45.61;99887.31;5054605;28;20021;-77
2021/07/26 04:39:37;;;;;;;11.50;5.20;;;;;;;21.40;45.74;99859.78;5054770;28;20051;-76
2021/07/26 04:42:02;;;;;;;10.63;6.00;;;;;;;21.26;45.98;99843.16;5054845;28;20409;-76
2021/07/26 04:44:28;;;;;;;11.70;5.57;;;;;;;21.74;45.69;99896.44;5054274;28;20048;-75
2021/07/26 04:46:53;;;;;;;9.70;5.03;;;;;;;21.72;45.74;99892.38;5052945;28;20116;-76
2021/07/26 04:49:22;;;;;;;8.15;5.63;;;;;;;21.58;45.64;99837.31;5054558;28;20021;-76
2021/07/26 04:51:48;;;;;;;8.52;5.03;;;;;;;22.04;45.62;99903.41;5054246;28;20028;-74
2021/07/26 04:54:13;;;;;;;8.63;5.57;;;;;;;21.59;45.86;99855.88;5054295;28;20021;-76
2021/07/26 04:56:39;;;;;;;12.52;6.72;;;;;;;21.34;46.57;99828.53;5054026;28;20021;-76
2021/07/26 04:59:04;;;;;;;9.88;6.25;;;;;;;21.71;46.66;99878.13;5053023;28;20031;-75
2021/07/26 05:01:29;;;;;;;15.75;7.68;;;;;;;21.84;46.97;99885.06;5054063;28;20029;-75
2021/07/26 05:03:55;;;;;;;15.60;7.93;;;;;;;21.88;46.95;99862.81;5054166;28;20021;-75
2021/07/26 05:06:20;;;;;;;9.63;7.20;;;;;;;22.23;47.00;99896.72;5054084;28;20060;-76
2021/07/26 05:08:46;;;;;;;13.80;8.20;;;;;;;22.14;47.03;99872.13;5054044;28;20035;-76
2021/07/26 05:11:11;;;;;;;11.45;7.68;;;;;;;22.40;47.26;99902.94;5053574;28;20017;-74
2021/07/26 05:13:36;;;;;;;14.65;7.03;;;;;;;22.26;47.29;99861.28;5053192;28;20112;-74
2021/07/26 05:16:02;;;;;;;13.82;7.60;;;;;;;22.39;47.01;99855.56;5053522;28;20071;-75
2021/07/26 05:18:27;;;;;;;10.57;6.85;;;;;;;22.61;47.62;99879.81;5046276;28;20021;-76
2021/07/26 05:20:53;;;;;;;12.32;7.38;;;;;;;22.35;47.87;99826.72;5033909;28;20172;-76
2021/07/26 05:23:18;;;;;;;12.05;7.00;;;;;;;22.57;48.14;99850.97;5042883;28;20052;-76
2021/07/26 05:25:45;;;;;;;12.82;6.88;;;;;;;22.98;47.83;99904.28;5057302;28;20023;-75
2021/07/26 05:28:12;;;;;;;10.13;6.78;;;;;;;22.99;47.79;99883.56;5072382;28;20020;-76
2021/07/26 05:30:38;;;;;;;10.77;7.22;;;;;;;22.95;47.95;99864.41;5065737;28;20036;-75
2021/07/26 05:33:03;;;;;;;13.77;7.85;;;;;;;23.22;47.89;99896.81;5033344;28;20460;-76
2021/07/26 05:35:30;;;;;;;10.68;8.23;;;;;;;23.04;48.01;99864.81;5033368;28;20013;-76
2021/07/26 05:37:56;;;;;;;14.38;8.02;;;;;;;23.33;48.05;99909.31;5042398;28;20043;-76
2021/07/26 05:40:21;;;;;;;8.77;7.07;;;;;;;22.87;47.99;99819.06;5053113;28;20025;-76
2021/07/26 05:42:47;;;;;;;10.18;7.15;;;;;;;23.28;47.80;99862.66;5053074;28;20059;-76
2021/07/26 05:45:12;;;;;;;7.88;6.57;;;;;;;23.58;47.79;99895.31;5051428;28;20063;-75
2021/07/26 05:47:38;;;;;;;7.65;5.70;;;;;;;23.57;47.95;99899.09;5052752;28;20040;-76
2021/07/26 05:50:05;;;;;;;7.18;5.45;;;;;;;23.66;47.76;99894.06;5051791;28;20116;-75
2021/07/26 05:52:31;;;;;;;8.90;5.53;;;;;;;23.51;47.18;99866.91;5052849;28;20020;-75
2021/07/26 05:54:56;;;;;;;6.25;5.47;;;;;;;23.72;47.45;99880.38;5039620;28;20508;-75
2021/07/26 05:57:24;;;;;;;10.02;5.00;;;;;;;23.89;47.57;99903.72;5042332;28;20056;-76
2021/07/26 05:59:52;;;;;;;8.95;5.03;;;;;;;23.68;47.40;99862.25;5041313;28;20049;-76
2021/07/26 06:02:17;;;;;;;8.00;5.53;;;;;;;23.82;47.36;99868.88;5049436;28;20021;-75
2021/07/26 06:04:43;;;;;;;7.45;5.82;;;;;;;23.86;47.19;99863.78;5055281;28;20477;-75
2021/07/26 06:07:08;;;;;;;5.38;4.70;;;;;;;23.80;46.69;99844.06;5040377;28;20033;-73
2021/07/26 06:09:34;;;;;;;7.43;5.65;;;;;;;24.15;46.87;99886.66;5052964;28;20029;-75
2021/07/26 06:11:59;;;;;;;9.85;5.47;;;;;;;24.28;46.67;99893.53;5050273;28;20104;-76
2021/07/26 06:14:25;;;;;;;5.65;4.68;;;;;;;24.09;46.81;99885.81;5032609;28;20022;-77
2021/07/26 06:16:52;;;;;;;9.57;5.50;;;;;;;24.25;46.71;99899.44;5032658;28;20100;-76
2021/07/26 06:19:20;;;;;;;10.23;5.55;;;;;;;24.35;46.72;99905.72;5032386;28;20025;-76
2021/07/26 06:21:56;;;;;;;9.60;7.15;;;;;;;24.47;46.85;99897.44;5033738;28;20029;-76
2021/07/26 06:24:22;;;;;;;5.60;5.00;;;;;;;24.53;46.46;99896.44;5032151;28;20029;-80
2021/07/26 06:26:48;;;;;;;9.10;5.03;;;;;;;24.69;46.07;99916.22;5032415;28;20064;-82
2021/07/26 06:29:14;;;;;;;7.82;4.88;;;;;;;24.33;45.83;99845.00;5048623;28;20067;-81
2021/07/26 06:31:43;;;;;;;8.52;4.85;;;;;;;24.74;45.88;99883.03;5052381;28;20032;-81
2021/07/26 06:34:09;;;;;;;8.30;5.00;;;;;;;24.60;45.63;99845.72;5052288;28;20021;-81
2021/07/26 06:36:36;;;;;;;6.97;5.45;;;;;;;24.82;45.51;99864.44;5050515;28;20126;-81
2021/07/26 06:39:02;;;;;;;6.93;5.32;;;;;;;25.19;45.11;99917.56;5042296;28;20025;-80
2021/07/26 06:41:28;;;;;;;5.20;4.65;;;;;;;24.97;45.18;99859.13;5051875;28;20036;-80
2021/07/26 06:43:53;;;;;;;9.05;4.78;;;;;;;24.91;44.90;99843.94;5042182;28;20413;-81
2021/07/26 06:46:20;;;;;;;5.20;4.70;;;;;;;25.34;44.73;99904.94;5042232;28;20028;-80
2021/07/26 06:48:45;;;;;;;8.18;6.22;;;;;;;25.41;44.45;99912.00;5044047;28;20094;-80
2021/07/26 06:51:11;;;;;;;6.25;4.65;;;;;;;25.13;44.00;99859.19;5030561;28;20021;-80
2021/07/26 06:53:36;;;;;;;9.23;5.07;;;;;;;25.23;43.97;99868.13;5031771;28;20021;-81
2021/07/26 06:56:04;;;;;;;5.90;4.32;;;;;;;24.97;43.78;99818.59;5031968;28;20017;-79
2021/07/26 06:58:29;;;;;;;9.85;5.65;;;;;;;25.64;43.68;99903.38;5030736;28;20029;-81
2021/07/26 07:00:54;;;;;;;6.82;4.60;;;;;;;25.70;43.07;99902.34;5041655;28;20074;-81
2021/07/26 07:03:20;;;;;;;9.02;5.30;;;;;;;25.62;43.08;99889.31;5048288;28;20031;-81
2021/07/26 07:05:45;;;;;;;7.80;5.65;;;;;;;25.48;42.84;99856.59;5034221;28;20018;-80
2021/07/26 07:08:11;;;;;;;7.35;5.82;;;;;;;25.82;42.58;99891.25;5033277;28;20025;-81
2021/07/26 07:10:36;;;;;;;7.35;5.13;;;;;;;25.83;42.25;99884.75;5043255;28;20021;-81
2021/07/26 07:13:02;;;;;;;8.82;5.15;;;;;;;25.49;42.13;99822.25;5031347;28;20460;-82
2021/07/26 07:15:28;;;;;;;9.85;6.40;;;;;;;25.49;42.10;99824.94;5037417;28;20032;-82
2021/07/26 07:17:53;;;;;;;9.80;6.82;;;;;;;25.89;42.07;99875.56;5051008;28;20078;-81
2021/07/26 07:20:19;;;;;;;7.63;5.55;;;;;;;25.64;41.63;99819.53;5051324;28;20021;-81
2021/07/26 07:22:45;;;;;;;6.57;5.78;;;;;;;26.01;41.39;99861.75;5051397;28;20021;-82
2021/07/26 07:25:11;;;;;;;8.35;5.63;;;;;;;26.31;40.78;99888.81;5050299;28;20028;-79
2021/07/26 07:27:37;;;;;;;8.60;6.07;;;;;;;26.22;40.76;99861.50;5051074;28;20028;-82
2021/07/26 07:30:03;;;;;;;9.25;6.03;;;;;;;26.56;40.27;99904.25;5051093;28;20017;-82
2021/07/26 07:32:28;;;;;;;6.28;4.63;;;;;;;26.64;40.24;99911.00;5047816;28;20224;-81
2021/07/26 07:34:53;;;;;;;6.95;4.57;;;;;;;26.62;39.67;99888.78;5032243;28;20021;-80
2021/07/26 07:37:19;;;;;;;6.22;4.88;;;;;;;26.45;39.55;99862.84;5034188;28;20108;-81
2021/07/26 07:39:44;;;;;;;7.30;4.60;;;;;;;26.84;39.16;99894.72;5043864;28;20044;-81
2021/07/26 07:42:10;;;;;;;4.70;4.30;;;;;;;26.90;38.83;99894.41;5050818;28;20032;-81
2021/07/26 07:44:35;;;;;;;6.22;4.38;;;;;;;26.85;38.55;99875.47;5049146;28;20025;-81
2021/07/26 07:47:02;;;;;;;6.53;3.92;;;;;;;26.76;38.24;99854.63;5040831;28;20438;-82
2021/07/26 07:49:28;;;;;;;8.13;3.97;;;;;;;26.62;38.07;99816.47;5030907;28;20037;-80
2021/07/26 07:51:54;;;;;;;5.38;4.30;;;;;;;26.81;38.09;99838.38;5031105;28;20091;-81
2021/07/26 07:54:20;;;;;;;6.18;5.28;;;;;;;27.29;37.75;99884.78;5031673;28;20013;-81
2021/07/26 07:56:47;;;;;;;6.13;4.90;;;;;;;27.08;37.60;99849.66;5041820;28;20028;-82
2021/07/26 07:59:13;;;;;;;7.13;4.15;;;;;;;27.16;37.13;99846.34;5051052;28;20025;-80
2021/07/26 08:01:38;;;;;;;7.07;4.72;;;;;;;27.07;37.17;99828.25;5031841;28;20075;-82
2021/07/26 08:04:04;;;;;;;5.65;4.63;;;;;;;27.27;36.66;99838.16;5038432;28;20541;-81
2021/07/26 08:06:30;;;;;;;9.40;5.47;;;;;;;27.58;36.72;99869.44;5033689;28;20047;-80
2021/07/26 08:08:56;;;;;;;9.70;4.70;;;;;;;27.38;36.56;99831.56;5036516;28;20752;-79
2021/07/26 08:11:21;;;;;;;7.80;4.57;;;;;;;27.69;36.17;99843.06;5039337;28;20106;-80
2021/07/26 08:13:47;;;;;;;7.65;3.70;;;;;;;27.82;35.33;99861.41;5036150;28;20028;-82
2021/07/26 08:16:13;;;;;;;7.40;5.00;;;;;;;27.63;35.05;99830.63;5030339;28;20108;-80
2021/07/26 08:18:39;;;;;;;6.78;5.93;;;;;;;27.64;35.05;99819.50;5031468;28;20013;-79
2021/07/26 08:21:04;;;;;;;6.22;4.50;;;;;;;28.18;34.58;99875.47;5029810;28;20022;-82
2021/07/26 08:23:30;;;;;;;6.70;5.60;;;;;;;28.30;34.08;99870.53;5030238;28;20155;-75
2021/07/26 08:25:55;;;;;;;6.13;5.03;;;;;;;28.33;33.59;99853.66;5028097;28;20037;-73
2021/07/26 08:28:21;;;;;;;7.15;4.70;;;;;;;28.26;33.26;99831.47;5030968;28;20036;-76
2021/07/26 08:30:46;;;;;;;8.18;4.85;;;;;;;28.55;33.03;99871.34;5032800;28;20022;-73
2021/07/26 08:33:11;;;;;;;7.18;3.92;;;;;;;28.25;32.71;99823.59;5034868;28;20762;-73
2021/07/26 08:35:37;;;;;;;8.00;5.25;;;;;;;28.69;32.79;99870.34;5031846;28;20095;-72
2021/07/26 08:38:04;;;;;;;7.78;5.45;;;;;;;28.83;32.51;99873.19;5030107;28;20045;-75
2021/07/26 08:40:31;;;;;;;5.72;4.35;;;;;;;28.78;32.67;99844.16;5032298;28;20036;-75
2021/07/26 08:43:02;;;;;;;4.95;3.90;;;;;;;28.97;32.27;99860.53;5030842;28;20029;-76
2021/07/26 08:45:28;;;;;;;6.80;3.70;;;;;;;29.03;32.25;99867.56;5037095;28;20029;-73
2021/07/26 08:47:58;;;;;;;7.00;4.15;;;;;;;28.72;31.89;99811.91;5038137;28;20429;-73
2021/07/26 08:50:24;;;;;;;7.25;4.93;;;;;;;28.96;32.00;99834.44;5052031;28;20075;-74
2021/07/26 08:52:50;;;;;;;9.75;6.30;;;;;;;29.40;32.00;99868.66;5040940;28;20026;-75
2021/07/26 08:55:23;;;;;;;6.30;4.80;;;;;;;29.58;31.67;99865.16;5046982;28;20032;-75
2021/07/26 08:57:50;;;;;;;13.15;3.70;;;;;;;29.71;30.81;99861.69;5052627;28;20512;-74
2021/07/26 09:00:17;;;;;;;6.82;4.22;;;;;;;29.51;30.75;99818.47;5037398;28;20613;-75
2021/07/26 09:02:43;;;;;;;6.82;4.65;;;;;;;29.67;30.19;99825.28;5053901;28;20025;-74
2021/07/26 09:05:10;;;;;;;4.57;3.92;;;;;;;30.03;29.28;99873.75;5073681;28;20021;-74
2021/07/26 09:07:41;;;;;;;4.60;3.65;;;;;;;29.36;28.99;99761.56;5048693;28;20100;-74
2021/07/26 09:10:12;;;;;;;9.70;4.60;;;;;;;30.13;29.39;99868.13;5051079;28;20055;-75
2021/07/26 09:12:40;;;;;;;5.65;3.42;;;;;;;29.98;28.85;99832.94;5042230;28;20104;-75
2021/07/26 09:15:27;;;;;;;5.80;4.03;;;;;;;30.32;28.75;99868.84;5053344;28;20067;-73
2021/07/26 09:17:53;;;;;;;8.55;7.15;;;;;;;30.20;28.80;99805.88;5053575;28;20099;-76
2021/07/26 09:20:20;;;;;;;6.00;4.40;;;;;;;30.54;28.46;99829.22;5053287;28;20099;-75
2021/07/26 09:22:47;;;;;;;7.95;5.35;;;;;;;31.01;28.01;99857.19;5048618;28;20025;-76
2021/07/26 09:25:22;;;;;;;9.05;7.10;;;;;;;31.25;27.61;99857.78;5033376;28;20126;-82
2021/07/26 09:27:58;;;;;;;6.38;4.50;;;;;;;31.41;26.97;99852.78;5037747;28;20540;-81
2021/07/26 09:30:25;;;;;;;5.70;4.13;;;;;;;31.51;26.85;99853.34;5045649;28;20032;-81
2021/07/26 09:32:50;;;;;;;10.60;9.50;;;;;;;31.63;26.90;99855.53;5035550;28;20032;-80
2021/07/26 09:35:16;;;;;;;10.25;5.10;;;;;;;31.82;26.66;99855.38;5045340;28;20021;-80
2021/07/26 09:37:41;;;;;;;8.80;6.18;;;;;;;31.51;26.80;99790.59;5045194;28;20017;-81
2021/07/26 09:40:21;;;;;;;14.55;5.32;;;;;;;31.75;26.29;99803.94;5042885;28;20024;-81
2021/07/26 09:42:48;;;;;;;6.32;4.65;;;;;;;31.88;26.66;99796.78;5045437;28;20036;-82
2021/07/26 09:45:23;;;;;;;7.30;4.38;;;;;;;32.36;25.96;99846.06;5038521;28;20087;-81
2021/07/26 09:48:05;;;;;;;8.13;4.15;;;;;;;32.24;25.95;99802.16;5036791;28;20482;-82
2021/07/26 09:50:36;;;;;;;6.63;4.00;;;;;;;32.41;25.31;99810.41;5043159;28;20186;-79
2021/07/26 09:53:32;;;;;;;8.20;4.00;;;;;;;32.53;25.18;99815.25;5039804;28;20025;-79
2021/07/26 09:56:15;;;;;;;7.63;4.20;;;;;;;32.52;25.20;99799.97;5027231;28;20034;-80
2021/07/26 09:58:42;;;;;;;6.75;3.40;;;;;;;32.75;24.84;99839.00;5018355;28;20486;-82
2021/07/26 10:01:09;;;;;;;8.30;4.28;;;;;;;32.87;25.01;99839.22;5023325;28;20032;-81
2021/07/26 10:03:38;;;;;;;4.53;3.17;;;;;;;32.94;24.63;99836.00;5024615;28;20111;-81
2021/07/26 10:06:04;;;;;;;6.68;3.28;;;;;;;33.03;24.31;99815.75;5016259;28;20072;-80
2021/07/26 10:08:31;;;;;;;5.97;3.90;;;;;;;33.14;24.14;99814.28;5013350;28;20026;-82
2021/07/26 10:10:57;;;;;;;4.50;3.10;;;;;;;33.30;23.75;99842.03;5021333;28;20507;-78
2021/07/26 10:13:23;;;;;;;8.07;3.13;;;;;;;33.26;23.31;99794.50;5027646;28;20117;-82
2021/07/26 10:15:49;;;;;;;5.07;3.70;;;;;;;32.84;23.46;99714.84;5017835;28;20025;-82
2021/07/26 10:18:15;;;;;;;7.93;3.50;;;;;;;33.28;23.36;99750.38;5034561;28;20056;-80
2021/07/26 10:21:04;;;;;;;6.90;3.58;;;;;;;33.87;22.86;99817.19;5032962;28;20016;-82
2021/07/26 10:24:05;;;;;;;5.15;3.10;;;;;;;34.05;23.33;99807.00;5022387;28;20404;-82
2021/07/26 10:26:33;;;;;;;5.35;2.53;;;;;;;34.01;22.55;99798.63;5008519;28;20057;-80
2021/07/26 10:28:59;;;;;;;4.60;3.30;;;;;;;34.07;22.19;99769.91;5033022;28;20024;-82
2021/07/26 10:31:28;;;;;;;4.22;3.08;;;;;;;34.50;22.63;99798.31;5052385;28;20032;-81
2021/07/26 10:34:02;;;;;;;4.55;3.60;;;;;;;34.32;22.05;99732.59;5034493;28;20033;-81
2021/07/26 10:36:45;;;;;;;5.18;3.25;;;;;;;34.93;21.25;99790.66;5020867;28;20029;-80
2021/07/26 10:39:17;;;;;;;6.45;3.00;;;;;;;34.40;22.14;99709.81;5016370;28;20036;-81
2021/07/26 10:41:42;;;;;;;5.10;2.75;;;;;;;35.03;21.54;99783.97;5026056;28;20105;-81
2021/07/26 10:44:09;;;;;;;7.80;3.20;;;;;;;35.04;21.22;99778.13;5018966;28;20125;-81
2021/07/26 10:46:53;;;;;;;7.18;2.88;;;;;;;35.15;21.14;99778.53;5014026;28;20030;-81
2021/07/26 10:49:44;;;;;;;5.78;2.45;;;;;;;35.03;20.14;99738.09;5020584;28;20084;-81
2021/07/26 10:52:21;;;;;;;5.35;4.03;;;;;;;35.47;20.67;99778.91;5018466;28;20025;-82
2021/07/26 10:54:46;;;;;;;7.63;6.30;;;;;;;35.53;20.67;99766.56;5020166;28;20092;-80
2021/07/26 10:57:15;;;;;;;8.88;6.28;;;;;;;35.44;19.88;99735.66;5025869;28;20025;-81
2021/07/26 11:00:15;;;;;;;4.60;2.78;;;;;;;35.82;18.65;99766.47;5018696;28;20057;-80
2021/07/26 11:02:43;;;;;;;7.13;3.90;;;;;;;35.49;18.73;99727.19;5014942;28;20018;-81
2021/07/26 11:05:27;;;;;;;11.30;7.00;;;;;;;35.84;18.58;99766.13;5015022;28;20109;-81
2021/07/26 11:08:15;;;;;;;7.30;4.65;;;;;;;35.89;18.59;99769.44;5016223;28;20135;-82
2021/07/26 11:10:44;;;;;;;9.07;5.28;;;;;;;35.48;18.77;99687.16;5017840;28;20364;-81
2021/07/26 11:13:10;;;;;;;5.88;4.60;;;;;;;35.82;18.95;99718.97;5009284;28;20475;-81
2021/07/26 11:15:52;;;;;;;7.97;4.68;;;;;;;36.26;18.19;99764.78;5011386;28;20030;-81
2021/07/26 11:18:41;;;;;;;12.07;10.90;;;;;;;36.26;18.27;99766.72;5010426;28;20029;-81
2021/07/26 11:21:10;;;;;;;10.27;5.20;;;;;;;36.28;17.97;99758.94;5011609;28;20036;-81
2021/07/26 11:23:42;;;;;;;10.02;6.68;;;;;;;36.57;17.25;99766.19;5009418;28;20022;-75
2021/07/26 11:26:16;;;;;;;7.60;4.50;;;;;;;36.71;17.30;99754.81;5051780;28;20045;-74
2021/07/26 11:28:42;;;;;;;9.25;4.10;;;;;;;36.85;17.48;99750.56;5021675;28;20048;-74
2021/07/26 11:31:07;;;;;;;8.48;4.15;;;;;;;36.65;17.70;99723.19;5009913;28;20034;-75
2021/07/26 11:33:33;;;;;;;5.15;3.42;;;;;;;36.83;17.32;99719.84;5015550;28;20100;-74